createdAt,value
2019-02-15T00:01:43.988Z,97.10
2019-02-15T00:04:32.677Z,97.10
2019-02-15T00:07:20.533Z,97.20
2019-02-15T00:10:08.311Z,97.30
2019-02-15T00:12:56.437Z,96.90
2019-02-15T00:15:44.429Z,96.90
2019-02-15T00:18:54.306Z,97.10
2019-02-15T00:21:44.912Z,97.00
2019-02-15T00:24:33.345Z,97.20
2019-02-15T00:27:21.150Z,97.60
2019-02-15T00:30:10.631Z,97.70
2019-02-15T00:32:58.369Z,97.60
2019-02-15T00:35:46.478Z,97.70
2019-02-15T00:38:34.416Z,97.70
2019-02-15T00:41:21.980Z,97.50
2019-02-15T00:44:09.708Z,97.30
2019-02-15T00:47:29.150Z,97.30
2019-02-15T00:50:47.910Z,97.20
2019-02-15T00:53:53.193Z,97.30
2019-02-15T00:56:56.596Z,97.10
2019-02-15T01:00:06.505Z,97.00
2019-02-15T01:03:19.919Z,97.10
2019-02-15T01:06:35.552Z,97.30
2019-02-15T01:09:31.597Z,97.20
2019-02-15T01:12:29.757Z,97.40
2019-02-15T01:15:17.370Z,97.60
2019-02-15T01:18:05.203Z,97.70
2019-02-15T01:20:53.095Z,97.50
2019-02-15T01:23:40.920Z,97.40
2019-02-15T01:26:37.995Z,97.10
2019-02-15T01:29:41.549Z,97.10
2019-02-15T01:32:40.179Z,97.30
2019-02-15T01:35:46.061Z,97.30
2019-02-15T01:38:51.694Z,97.20
2019-02-15T01:42:02.008Z,97.20
2019-02-15T01:45:04.090Z,97.50
2019-02-15T01:47:52.290Z,97.30
2019-02-15T01:50:40.477Z,97.20
2019-02-15T01:53:28.360Z,97.10
2019-02-15T01:56:16.454Z,97.10
2019-02-15T01:59:04.698Z,97.00
2019-02-15T02:01:53.374Z,96.90
2019-02-15T02:04:41.040Z,96.90
2019-02-15T02:07:29.006Z,97.10
2019-02-15T02:10:17.160Z,97.00
2019-02-15T02:13:05.384Z,97.30
2019-02-15T02:15:53.537Z,97.30
2019-02-15T02:18:41.005Z,97.20
2019-02-15T02:21:29.214Z,96.90
2019-02-15T02:24:17.421Z,97.00
2019-02-15T02:27:05.474Z,96.80
2019-02-15T02:29:53.438Z,96.70
2019-02-15T02:32:41.418Z,96.80
2019-02-15T02:35:29.195Z,96.60
2019-02-15T02:38:17.854Z,96.70
2019-02-15T02:41:05.899Z,96.60
2019-02-15T02:43:59.627Z,96.80
2019-02-15T02:46:44.193Z,97.10
2019-02-15T02:49:32.161Z,97.40
2019-02-15T02:52:19.993Z,97.60
2019-02-15T02:55:08.029Z,97.30
2019-02-15T02:57:56.168Z,97.20
2019-02-15T03:00:44.171Z,96.90
2019-02-15T03:03:32.102Z,96.70
2019-02-15T03:06:20.328Z,96.60
2019-02-15T03:09:10.040Z,96.40
2019-02-15T03:11:57.718Z,96.70
2019-02-15T03:14:45.808Z,96.60
2019-02-15T03:17:33.794Z,96.60
2019-02-15T03:20:30.912Z,96.60
2019-02-15T03:23:12.875Z,96.50
2019-02-15T03:26:01.164Z,96.50
2019-02-15T03:28:49.170Z,96.50
2019-02-15T03:31:37.220Z,96.50
2019-02-15T03:34:25.449Z,96.50
2019-02-15T03:37:32.733Z,96.70
2019-02-15T03:40:24.235Z,96.80
2019-02-15T03:43:12.280Z,97.10
2019-02-15T03:46:00.382Z,96.90
2019-02-15T03:48:48.466Z,97.00
2019-02-15T03:51:36.418Z,96.80
2019-02-15T03:54:24.953Z,96.50
2019-02-15T03:57:13.080Z,96.50
2019-02-15T04:00:01.443Z,96.50
2019-02-15T04:02:49.301Z,96.60
2019-02-15T04:05:37.381Z,97.10
2019-02-15T04:08:25.598Z,96.90
2019-02-15T04:11:13.999Z,96.90
2019-02-15T04:14:01.741Z,96.70
2019-02-15T04:16:49.868Z,96.70
2019-02-15T04:19:37.845Z,96.70
2019-02-15T04:22:26.130Z,96.30
2019-02-15T04:25:13.820Z,96.40
2019-02-15T04:28:01.883Z,96.50
2019-02-15T04:30:50.073Z,96.40
2019-02-15T04:33:38.159Z,96.10
2019-02-15T04:36:26.602Z,96.50
2019-02-15T04:39:15.231Z,96.50
2019-02-15T04:42:03.423Z,96.40
2019-02-15T04:44:51.518Z,96.30
2019-02-15T04:47:39.682Z,96.30
2019-02-15T04:50:27.950Z,96.40
2019-02-15T04:53:16.545Z,96.40
2019-02-15T04:56:04.697Z,96.50
2019-02-15T04:58:53.193Z,96.90
2019-02-15T05:01:40.944Z,96.80
2019-02-15T05:04:29.265Z,97.00
2019-02-15T05:07:19.258Z,97.00
2019-02-15T05:10:07.411Z,96.80
2019-02-15T05:12:55.354Z,96.70
2019-02-15T05:15:43.953Z,96.80
2019-02-15T05:18:32.481Z,96.80
2019-02-15T05:21:20.977Z,96.60
2019-02-15T05:24:09.260Z,96.60
2019-02-15T05:26:57.469Z,96.40
2019-02-15T05:29:46.009Z,96.40
2019-02-15T05:32:36.673Z,96.30
2019-02-15T05:35:27.779Z,96.20
2019-02-15T05:38:16.030Z,96.40
2019-02-15T05:41:06.918Z,96.20
2019-02-15T05:43:55.015Z,96.30
2019-02-15T05:46:42.811Z,96.20
2019-02-15T05:49:30.688Z,96.40
2019-02-15T05:52:18.697Z,96.20
2019-02-15T05:55:07.105Z,96.40
2019-02-15T05:57:55.231Z,96.80
2019-02-15T06:00:45.783Z,96.60
2019-02-15T06:03:33.866Z,96.50
2019-02-15T06:06:21.699Z,96.50
2019-02-15T06:09:10.231Z,96.60
2019-02-15T06:11:58.356Z,96.50
2019-02-15T06:14:46.612Z,96.70
2019-02-15T06:17:34.332Z,96.70
2019-02-15T06:20:25.548Z,96.50
2019-02-15T06:23:13.569Z,96.90
2019-02-15T06:26:04.003Z,96.70
2019-02-15T06:28:52.401Z,96.70
2019-02-15T06:31:40.313Z,96.60
2019-02-15T06:34:31.974Z,96.70
2019-02-15T06:37:20.091Z,96.70
2019-02-15T06:40:08.577Z,96.90
2019-02-15T06:42:57.181Z,96.90
2019-02-15T06:45:45.227Z,96.70
2019-02-15T06:48:33.277Z,96.60
2019-02-15T06:51:22.170Z,96.60
2019-02-15T06:54:11.419Z,96.40
2019-02-15T06:56:59.452Z,96.50
2019-02-15T06:59:52.745Z,96.40
2019-02-15T07:02:54.376Z,96.50
2019-02-15T07:05:42.991Z,96.80
2019-02-15T07:08:31.157Z,96.80
2019-02-15T07:11:19.727Z,96.60
2019-02-15T07:14:07.990Z,96.60
2019-02-15T07:16:56.182Z,96.70
2019-02-15T07:19:43.947Z,97.10
2019-02-15T07:22:31.919Z,97.30
2019-02-15T07:25:20.091Z,97.60
2019-02-15T07:28:08.058Z,98.00
2019-02-15T07:30:56.269Z,98.20
2019-02-15T07:33:44.360Z,98.00
2019-02-15T07:36:32.499Z,97.90
2019-02-15T07:39:20.348Z,97.60
2019-02-15T07:42:08.455Z,97.70
2019-02-15T07:44:57.101Z,97.90
2019-02-15T07:47:45.278Z,98.50
2019-02-15T07:50:33.291Z,98.20
2019-02-15T07:53:21.263Z,98.00
2019-02-15T07:56:09.446Z,98.20
2019-02-15T07:58:56.947Z,97.90
2019-02-15T08:01:44.811Z,98.20
2019-02-15T08:04:32.670Z,98.70
2019-02-15T08:07:20.677Z,98.80
2019-02-15T08:10:09.652Z,98.60
2019-02-15T08:12:57.538Z,99.00
2019-02-15T08:15:51.603Z,99.10
2019-02-15T08:18:35.293Z,98.90
2019-02-15T08:21:23.344Z,98.90
2019-02-15T08:24:11.476Z,98.40
2019-02-15T08:26:59.242Z,98.70
2019-02-15T08:29:48.084Z,98.90
2019-02-15T08:32:35.943Z,98.50
2019-02-15T08:35:24.026Z,97.90
2019-02-15T08:38:12.092Z,97.80
2019-02-15T08:41:00.051Z,98.00
2019-02-15T08:43:47.715Z,97.80
2019-02-15T08:46:35.174Z,97.30
2019-02-15T08:49:22.931Z,97.30
2019-02-15T08:52:11.042Z,97.60
2019-02-15T08:54:59.283Z,97.50
2019-02-15T08:57:47.226Z,97.30
2019-02-15T09:00:35.208Z,97.40
2019-02-15T09:03:23.342Z,97.40
2019-02-15T09:06:11.350Z,97.30
2019-02-15T09:08:58.801Z,97.00
2019-02-15T09:11:46.966Z,96.80
2019-02-15T09:14:35.477Z,97.00
2019-02-15T09:17:23.597Z,96.40
2019-02-15T09:20:12.302Z,95.90
2019-02-15T09:22:59.967Z,95.80
2019-02-15T09:25:48.034Z,95.70
2019-02-15T09:28:43.664Z,95.50
2019-02-15T09:31:31.755Z,95.50
2019-02-15T09:34:19.788Z,94.70
2019-02-15T09:37:07.774Z,94.20
2019-02-15T09:39:56.048Z,93.20
2019-02-15T09:42:43.864Z,92.60
2019-02-15T09:45:32.873Z,92.60
2019-02-15T09:48:21.678Z,91.80
2019-02-15T09:51:09.585Z,91.70
2019-02-15T09:53:57.773Z,92.50
2019-02-15T09:56:45.985Z,90.60
2019-02-15T09:59:34.940Z,90.40
2019-02-15T10:02:23.099Z,90.50
2019-02-15T10:05:11.011Z,91.50
2019-02-15T10:07:58.878Z,91.00
2019-02-15T10:10:46.966Z,88.30
2019-02-15T10:13:35.133Z,87.20
2019-02-15T10:16:29.683Z,87.50
2019-02-15T10:19:22.186Z,88.20
2019-02-15T10:22:04.055Z,89.40
2019-02-15T10:24:52.479Z,86.20
2019-02-15T10:27:40.905Z,84.10
2019-02-15T10:30:29.196Z,83.60
2019-02-15T10:33:17.822Z,82.70
2019-02-15T10:36:05.938Z,83.50
2019-02-15T10:38:54.057Z,81.30
2019-02-15T10:41:42.441Z,81.00
2019-02-15T10:44:30.380Z,80.00
2019-02-15T10:47:24.684Z,78.70
2019-02-15T10:50:08.649Z,78.20
2019-02-15T10:52:56.518Z,78.90
2019-02-15T10:55:44.304Z,77.90
2019-02-15T10:58:32.429Z,78.50
2019-02-15T11:01:19.947Z,78.30
2019-02-15T11:04:07.884Z,78.20
2019-02-15T11:06:55.394Z,77.70
2019-02-15T11:09:43.482Z,78.60
2019-02-15T11:12:31.305Z,77.50
2019-02-15T11:15:19.611Z,77.90
2019-02-15T11:18:08.271Z,78.50
2019-02-15T11:20:56.251Z,76.50
2019-02-15T11:23:44.416Z,77.50
2019-02-15T11:26:32.266Z,77.50
2019-02-15T11:29:20.567Z,75.00
2019-02-15T11:32:08.871Z,74.70
2019-02-15T11:34:57.065Z,75.50
2019-02-15T11:37:44.997Z,74.10
2019-02-15T11:40:33.801Z,73.30
2019-02-15T11:43:21.612Z,74.40
2019-02-15T11:46:09.323Z,74.00
2019-02-15T11:48:57.301Z,71.30
2019-02-15T11:51:44.835Z,71.20
2019-02-15T11:54:32.289Z,70.10
2019-02-15T11:57:20.372Z,69.40
2019-02-15T12:00:14.172Z,69.90
2019-02-15T12:03:00.135Z,70.50
2019-02-15T12:05:48.073Z,70.00
2019-02-15T12:08:35.538Z,69.80
2019-02-15T12:11:22.994Z,68.90
2019-02-15T12:14:10.692Z,68.40
2019-02-15T12:17:05.437Z,67.60
2019-02-15T12:19:47.593Z,66.90
2019-02-15T12:22:35.381Z,66.60
2019-02-15T12:25:23.268Z,65.70
2019-02-15T12:28:11.333Z,66.30
2019-02-15T12:30:59.209Z,69.30
2019-02-15T12:33:47.022Z,65.00
2019-02-15T12:36:34.879Z,64.90
2019-02-15T12:39:22.804Z,65.40
2019-02-15T12:42:10.659Z,63.50
2019-02-15T12:44:59.017Z,63.30
2019-02-15T12:47:47.405Z,62.30
2019-02-15T12:50:35.068Z,63.00
2019-02-15T12:53:22.761Z,60.40
2019-02-15T12:56:10.270Z,61.30
2019-02-15T12:58:58.332Z,59.80
2019-02-15T13:01:45.831Z,59.50
2019-02-15T13:04:33.569Z,59.80
2019-02-15T13:07:21.269Z,60.20
2019-02-15T13:10:12.497Z,61.00
2019-02-15T13:13:00.149Z,60.00
2019-02-15T13:15:48.131Z,59.70
2019-02-15T13:18:36.004Z,60.20
2019-02-15T13:21:24.301Z,60.30
2019-02-15T13:24:12.280Z,59.20
2019-02-15T13:27:00.381Z,60.20
2019-02-15T13:29:48.205Z,60.00
2019-02-15T13:32:36.179Z,59.80
2019-02-15T13:35:24.214Z,60.40
2019-02-15T13:38:12.318Z,59.50
2019-02-15T13:41:00.130Z,59.30
2019-02-15T13:43:48.040Z,59.30
2019-02-15T13:46:36.062Z,60.30
2019-02-15T13:49:24.085Z,60.00
2019-02-15T13:52:11.652Z,59.20
2019-02-15T13:54:59.801Z,59.80
2019-02-15T13:57:48.067Z,59.40
2019-02-15T14:00:36.212Z,59.10
2019-02-15T14:03:23.699Z,59.00
2019-02-15T14:06:11.533Z,59.20
2019-02-15T14:08:59.883Z,59.20
2019-02-15T14:11:47.788Z,58.80
2019-02-15T14:14:35.646Z,59.00
2019-02-15T14:17:23.699Z,58.00
2019-02-15T14:20:11.737Z,58.60
2019-02-15T14:22:59.401Z,57.60
2019-02-15T14:25:47.256Z,57.60
2019-02-15T14:28:35.479Z,57.20
2019-02-15T14:31:23.387Z,57.20
2019-02-15T14:34:10.998Z,57.10
2019-02-15T14:37:00.952Z,56.60
2019-02-15T14:39:49.868Z,57.30
2019-02-15T14:42:37.552Z,57.30
2019-02-15T14:45:25.826Z,56.70
2019-02-15T14:48:13.668Z,56.10
2019-02-15T14:51:01.795Z,56.50
2019-02-15T14:53:49.783Z,56.30
2019-02-15T14:56:37.624Z,56.30
2019-02-15T14:59:25.518Z,55.90
2019-02-15T15:02:13.179Z,55.90
2019-02-15T15:05:00.898Z,56.00
2019-02-15T15:07:49.033Z,56.30
2019-02-15T15:10:37.062Z,56.80
2019-02-15T15:13:25.061Z,55.60
2019-02-15T15:16:13.171Z,56.70
2019-02-15T15:19:00.796Z,56.80
2019-02-15T15:21:48.639Z,56.20
2019-02-15T15:24:36.480Z,56.60
2019-02-15T15:27:24.453Z,57.30
2019-02-15T15:30:12.764Z,57.40
2019-02-15T15:33:00.835Z,57.70
2019-02-15T15:35:48.474Z,57.30
2019-02-15T15:38:36.377Z,57.60
2019-02-15T15:41:24.185Z,58.00
2019-02-15T15:44:12.193Z,58.40
2019-02-15T15:46:59.755Z,58.30
2019-02-15T15:49:48.122Z,58.50
2019-02-15T15:52:35.774Z,58.10
2019-02-15T15:55:24.380Z,57.90
2019-02-15T15:58:12.572Z,58.30
2019-02-15T16:01:00.734Z,57.90
2019-02-15T16:03:48.056Z,58.20
2019-02-15T16:06:35.488Z,58.10
2019-02-15T16:09:23.554Z,58.50
2019-02-15T16:12:11.323Z,60.40
2019-02-15T16:14:59.033Z,60.40
2019-02-15T16:17:47.222Z,61.70
2019-02-15T16:20:35.401Z,61.60
2019-02-15T16:23:23.339Z,62.50
2019-02-15T16:26:11.189Z,62.50
2019-02-15T16:28:59.075Z,62.50
2019-02-15T16:31:47.133Z,62.70
2019-02-15T16:34:35.171Z,63.00
2019-02-15T16:37:23.111Z,62.30
2019-02-15T16:40:12.184Z,62.40
2019-02-15T16:43:00.271Z,63.50
2019-02-15T16:45:47.937Z,63.60
2019-02-15T16:48:42.157Z,63.40
2019-02-15T16:51:25.545Z,64.00
2019-02-15T16:54:13.160Z,64.80
2019-02-15T16:57:01.089Z,65.80
2019-02-15T16:59:48.795Z,66.70
2019-02-15T17:02:37.787Z,68.00
2019-02-15T17:05:25.892Z,69.00
2019-02-15T17:08:13.696Z,69.50
2019-02-15T17:11:01.674Z,70.10
2019-02-15T17:13:49.622Z,71.40
2019-02-15T17:16:37.466Z,74.10
2019-02-15T17:19:25.021Z,74.80
2019-02-15T17:22:13.561Z,74.50
2019-02-15T17:25:01.207Z,74.50
2019-02-15T17:27:49.304Z,76.70
2019-02-15T17:30:37.346Z,78.20
2019-02-15T17:33:24.972Z,78.60
2019-02-15T17:36:12.861Z,80.90
2019-02-15T17:39:00.651Z,80.70
2019-02-15T17:41:48.444Z,80.90
2019-02-15T17:44:36.283Z,80.70
2019-02-15T17:47:23.713Z,80.90
2019-02-15T17:50:11.513Z,82.30
2019-02-15T17:52:59.338Z,83.50
2019-02-15T17:55:47.201Z,85.10
2019-02-15T17:58:37.301Z,84.50
2019-02-15T18:01:25.530Z,84.10
2019-02-15T18:04:13.518Z,84.60
2019-02-15T18:07:03.546Z,86.40
2019-02-15T18:09:51.385Z,88.00
2019-02-15T18:12:39.188Z,88.50
2019-02-15T18:15:28.176Z,88.50
2019-02-15T18:18:16.261Z,88.50
2019-02-15T18:21:04.339Z,88.60
2019-02-15T18:23:53.153Z,89.00
2019-02-15T18:26:44.393Z,89.40
2019-02-15T18:29:32.121Z,89.80
2019-02-15T18:32:19.855Z,89.60
2019-02-15T18:35:07.889Z,89.40
2019-02-15T18:37:55.796Z,90.00
2019-02-15T18:40:43.692Z,90.30
2019-02-15T18:43:31.424Z,90.90
2019-02-15T18:46:19.684Z,91.40
2019-02-15T18:49:07.649Z,91.40
2019-02-15T18:51:55.512Z,91.80
2019-02-15T18:54:45.982Z,92.00
2019-02-15T18:57:39.286Z,92.60
2019-02-15T19:00:30.504Z,92.80
2019-02-15T19:03:20.374Z,92.50
2019-02-15T19:06:10.590Z,92.40
2019-02-15T19:08:58.469Z,92.00
2019-02-15T19:11:46.677Z,92.00
2019-02-15T19:14:38.020Z,92.40
2019-02-15T19:17:26.325Z,92.20
2019-02-15T19:20:14.454Z,92.40
2019-02-15T19:23:01.909Z,92.40
2019-02-15T19:25:56.994Z,92.30
2019-02-15T19:28:45.187Z,92.30
2019-02-15T19:31:33.090Z,92.60
2019-02-15T19:34:21.258Z,92.50
2019-02-15T19:37:09.468Z,92.60
2019-02-15T19:39:57.293Z,92.60
2019-02-15T19:42:47.094Z,92.50
2019-02-15T19:45:35.520Z,92.60
2019-02-15T19:48:23.365Z,92.50
2019-02-15T19:51:11.554Z,92.80
2019-02-15T19:54:01.550Z,92.90
2019-02-15T19:56:49.397Z,92.90
2019-02-15T19:59:37.047Z,93.10
2019-02-15T20:02:24.610Z,93.40
2019-02-15T20:05:13.445Z,93.30
2019-02-15T20:08:01.396Z,93.20
2019-02-15T20:10:48.984Z,93.20
2019-02-15T20:13:36.770Z,93.20
2019-02-15T20:16:24.715Z,93.50
2019-02-15T20:19:12.331Z,93.50
2019-02-15T20:21:59.750Z,93.60
2019-02-15T20:24:50.905Z,93.60
2019-02-15T20:27:38.991Z,93.60
2019-02-15T20:30:26.701Z,93.60
2019-02-15T20:33:14.328Z,93.60
2019-02-15T20:36:01.786Z,93.80
2019-02-15T20:38:49.991Z,94.00
2019-02-15T20:41:37.995Z,94.20
2019-02-15T20:44:25.551Z,94.20
2019-02-15T20:47:25.865Z,94.20
2019-02-15T20:50:13.494Z,94.30
2019-02-15T20:53:03.273Z,94.50
2019-02-15T20:55:51.496Z,94.40
2019-02-15T20:58:40.187Z,94.20
2019-02-15T21:01:28.529Z,94.30
2019-02-15T21:04:16.733Z,94.50
2019-02-15T21:07:05.241Z,94.90
2019-02-15T21:09:53.662Z,94.90
2019-02-15T21:12:42.416Z,94.90
2019-02-15T21:15:31.089Z,94.70
2019-02-15T21:18:18.769Z,95.00
2019-02-15T21:21:06.259Z,94.80
2019-02-15T21:23:54.370Z,94.70
2019-02-15T21:26:42.317Z,94.90
2019-02-15T21:29:30.530Z,95.10
2019-02-15T21:32:20.528Z,94.90
2019-02-15T21:35:08.923Z,94.80
2019-02-15T21:38:00.333Z,94.90
2019-02-15T21:40:49.469Z,95.10
2019-02-15T21:43:45.328Z,95.00
2019-02-15T21:46:32.896Z,94.80
2019-02-15T21:49:20.726Z,94.80
2019-02-15T21:52:08.825Z,94.80
2019-02-15T21:54:56.103Z,94.90
2019-02-15T21:57:43.989Z,95.00
2019-02-15T22:00:31.767Z,95.20
2019-02-15T22:03:19.826Z,95.30
2019-02-15T22:06:07.452Z,95.30
2019-02-15T22:08:55.869Z,95.10
2019-02-15T22:11:43.870Z,95.20
2019-02-15T22:14:33.714Z,95.80
2019-02-15T22:17:21.499Z,95.60
2019-02-15T22:20:10.659Z,95.40
2019-02-15T22:22:58.765Z,95.50
2019-02-15T22:25:46.476Z,95.50
2019-02-15T22:28:34.669Z,95.40
2019-02-15T22:31:22.747Z,95.40
2019-02-15T22:34:10.958Z,95.40
2019-02-15T22:36:58.383Z,95.40
2019-02-15T22:39:49.410Z,95.30
2019-02-15T22:42:37.561Z,95.40
2019-02-15T22:45:26.722Z,95.40
2019-02-15T22:48:14.853Z,95.90
2019-02-15T22:51:02.516Z,96.10
2019-02-15T22:53:50.425Z,96.10
2019-02-15T22:56:38.237Z,96.00
2019-02-15T22:59:26.581Z,95.90
2019-02-15T23:02:14.890Z,96.10
2019-02-15T23:05:02.840Z,96.30
2019-02-15T23:07:50.885Z,96.20
2019-02-15T23:10:40.337Z,96.00
2019-02-15T23:13:28.605Z,95.90
2019-02-15T23:16:17.190Z,95.80
2019-02-15T23:19:05.183Z,96.00
2019-02-15T23:21:55.516Z,96.10
2019-02-15T23:24:43.666Z,95.90
2019-02-15T23:27:31.177Z,95.80
2019-02-15T23:30:18.924Z,95.80
2019-02-15T23:33:07.458Z,95.80
2019-02-15T23:35:57.703Z,95.70
2019-02-15T23:38:45.418Z,95.60
2019-02-15T23:41:33.154Z,95.80
2019-02-15T23:44:31.234Z,95.80
2019-02-15T23:47:19.338Z,96.00
2019-02-15T23:50:07.848Z,96.00
2019-02-15T23:52:56.015Z,95.90
2019-02-15T23:55:43.566Z,96.00
2019-02-15T23:58:31.397Z,95.90
